sensor_id;sensor_type;location;lat;lon;timestamp;pressure;altitude;pressure_sealevel;temperature;humidity
8627;BME280;4351;51.422;6.794;2023-02-28T00:01:14;102900.44;;;0.31;100.00
8627;BME280;4351;51.422;6.794;2023-02-28T00:03:42;102901.16;;;0.22;100.00
8627;BME280;4351;51.422;6.794;2023-02-28T00:06:10;102903.91;;;0.25;100.00
8627;BME280;4351;51.422;6.794;2023-02-28T00:08:38;102895.94;;;0.27;100.00
8627;BME280;4351;51.422;6.794;2023-02-28T00:11:10;102894.94;;;0.20;100.00
8627;BME280;4351;51.422;6.794;2023-02-28T00:13:40;102891.59;;;0.30;100.00
8627;BME280;4351;51.422;6.794;2023-02-28T00:16:11;102897.75;;;0.29;100.00
8627;BME280;4351;51.422;6.794;2023-02-28T00:18:41;102896.09;;;0.34;100.00
8627;BME280;4351;51.422;6.794;2023-02-28T00:21:09;102899.41;;;0.21;100.00
8627;BME280;4351;51.422;6.794;2023-02-28T00:23:37;102896.75;;;0.21;100.00
8627;BME280;4351;51.422;6.794;2023-02-28T00:26:05;102886.91;;;0.15;100.00
8627;BME280;4351;51.422;6.794;2023-02-28T00:28:33;102886.03;;;0.16;100.00
8627;BME280;4351;51.422;6.794;2023-02-28T00:31:00;102892.22;;;0.15;100.00
8627;BME280;4351;51.422;6.794;2023-02-28T00:33:28;102891.31;;;0.15;100.00
8627;BME280;4351;51.422;6.794;2023-02-28T00:36:06;102891.31;;;0.13;100.00
8627;BME280;4351;51.422;6.794;2023-02-28T00:38:38;102896.53;;;0.08;100.00
8627;BME280;4351;51.422;6.794;2023-02-28T00:41:06;102897.38;;;0.06;100.00
8627;BME280;4351;51.422;6.794;2023-02-28T00:43:36;102900.19;;;0.15;100.00
8627;BME280;4351;51.422;6.794;2023-02-28T00:46:05;102898.28;;;0.08;100.00
8627;BME280;4351;51.422;6.794;2023-02-28T00:48:33;102896.56;;;0.11;100.00
8627;BME280;4351;51.422;6.794;2023-02-28T00:51:01;102900.09;;;0.10;100.00
8627;BME280;4351;51.422;6.794;2023-02-28T00:53:32;102891.22;;;0.08;100.00
8627;BME280;4351;51.422;6.794;2023-02-28T00:56:00;102900.84;;;0.03;100.00
8627;BME280;4351;51.422;6.794;2023-02-28T00:58:28;102899.22;;;0.11;100.00
8627;BME280;4351;51.422;6.794;2023-02-28T01:00:56;102909.72;;;0.05;100.00
8627;BME280;4351;51.422;6.794;2023-02-28T01:03:24;102908.81;;;0.03;100.00
8627;BME280;4351;51.422;6.794;2023-02-28T01:05:52;102904.44;;;0.05;100.00
8627;BME280;4351;51.422;6.794;2023-02-28T01:08:21;102908.78;;;0.02;100.00
8627;BME280;4351;51.422;6.794;2023-02-28T01:10:51;102916.59;;;-0.06;100.00
8627;BME280;4351;51.422;6.794;2023-02-28T01:13:19;102915.69;;;-0.08;100.00
8627;BME280;4351;51.422;6.794;2023-02-28T01:15:51;102912.09;;;-0.10;100.00
8627;BME280;4351;51.422;6.794;2023-02-28T01:18:20;102915.69;;;-0.08;100.00
8627;BME280;4351;51.422;6.794;2023-02-28T01:20:48;102920.25;;;0.01;100.00
8627;BME280;4351;51.422;6.794;2023-02-28T01:23:18;102920.03;;;-0.12;100.00
8627;BME280;4351;51.422;6.794;2023-02-28T01:25:46;102917.38;;;-0.14;100.00
8627;BME280;4351;51.422;6.794;2023-02-28T01:28:15;102914.63;;;-0.17;100.00
8627;BME280;4351;51.422;6.794;2023-02-28T01:30:47;102908.63;;;-0.06;100.00
8627;BME280;4351;51.422;6.794;2023-02-28T01:33:15;102912.34;;;0.02;100.00
8627;BME280;4351;51.422;6.794;2023-02-28T01:35:43;102914.81;;;-0.07;100.00
8627;BME280;4351;51.422;6.794;2023-02-28T01:38:11;102915.31;;;-0.27;100.00
8627;BME280;4351;51.422;6.794;2023-02-28T01:40:49;102918.44;;;-0.02;100.00
8627;BME280;4351;51.422;6.794;2023-02-28T01:43:22;102913.94;;;-0.06;100.00
8627;BME280;4351;51.422;6.794;2023-02-28T01:45:51;102908.69;;;-0.05;100.00
8627;BME280;4351;51.422;6.794;2023-02-28T01:48:21;102903.31;;;-0.06;100.00
8627;BME280;4351;51.422;6.794;2023-02-28T01:50:53;102905.41;;;0.10;100.00
8627;BME280;4351;51.422;6.794;2023-02-28T01:53:26;102902.66;;;0.04;100.00
8627;BME280;4351;51.422;6.794;2023-02-28T01:55:56;102903.41;;;-0.03;100.00
8627;BME280;4351;51.422;6.794;2023-02-28T01:58:25;102899.94;;;0.01;100.00
8627;BME280;4351;51.422;6.794;2023-02-28T02:00:53;102898.16;;;0.00;100.00
8627;BME280;4351;51.422;6.794;2023-02-28T02:03:22;102895.44;;;-0.02;100.00
8627;BME280;4351;51.422;6.794;2023-02-28T02:05:50;102890.94;;;-0.07;100.00
8627;BME280;4351;51.422;6.794;2023-02-28T02:08:22;102890.09;;;-0.05;100.00
8627;BME280;4351;51.422;6.794;2023-02-28T02:10:52;102889.84;;;-0.17;100.00
8627;BME280;4351;51.422;6.794;2023-02-28T02:13:38;102884.53;;;-0.19;100.00
8627;BME280;4351;51.422;6.794;2023-02-28T02:16:23;102883.53;;;-0.24;100.00
8627;BME280;4351;51.422;6.794;2023-02-28T02:18:57;102879.22;;;-0.19;100.00
8627;BME280;4351;51.422;6.794;2023-02-28T02:25:04;102876.47;;;-0.24;100.00
8627;BME280;4351;51.422;6.794;2023-02-28T02:28:00;102871.06;;;-0.28;100.00
8627;BME280;4351;51.422;6.794;2023-02-28T02:30:51;102872.00;;;-0.26;100.00
8627;BME280;4351;51.422;6.794;2023-02-28T02:33:38;102864.03;;;-0.26;100.00
8627;BME280;4351;51.422;6.794;2023-02-28T02:36:18;102876.44;;;-0.27;100.00
8627;BME280;4351;51.422;6.794;2023-02-28T02:38:51;102867.53;;;-0.29;100.00
8627;BME280;4351;51.422;6.794;2023-02-28T02:41:26;102869.22;;;-0.32;100.00
8627;BME280;4351;51.422;6.794;2023-02-28T02:43:58;102869.13;;;-0.37;100.00
8627;BME280;4351;51.422;6.794;2023-02-28T02:46:32;102864.59;;;-0.44;100.00
8627;BME280;4351;51.422;6.794;2023-02-28T02:49:05;102870.72;;;-0.47;100.00
8627;BME280;4351;51.422;6.794;2023-02-28T02:51:36;102870.78;;;-0.44;100.00
8627;BME280;4351;51.422;6.794;2023-02-28T02:54:08;102871.41;;;-0.57;100.00
8627;BME280;4351;51.422;6.794;2023-02-28T02:56:41;102877.63;;;-0.55;100.00
8627;BME280;4351;51.422;6.794;2023-02-28T02:59:12;102878.44;;;-0.60;100.00
8627;BME280;4351;51.422;6.794;2023-02-28T03:01:41;102875.78;;;-0.60;100.00
8627;BME280;4351;51.422;6.794;2023-02-28T03:04:12;102877.63;;;-0.55;100.00
8627;BME280;4351;51.422;6.794;2023-02-28T03:06:44;102882.00;;;-0.57;100.00
8627;BME280;4351;51.422;6.794;2023-02-28T03:09:12;102878.34;;;-0.63;100.00
8627;BME280;4351;51.422;6.794;2023-02-28T03:11:41;102882.81;;;-0.62;100.00
8627;BME280;4351;51.422;6.794;2023-02-28T03:14:24;102885.50;;;-0.60;100.00
8627;BME280;4351;51.422;6.794;2023-02-28T03:17:10;102875.78;;;-0.60;100.00
8627;BME280;4351;51.422;6.794;2023-02-28T03:19:48;102865.97;;;-0.64;100.00
8627;BME280;4351;51.422;6.794;2023-02-28T03:22:43;102865.75;;;-0.75;100.00
8627;BME280;4351;51.422;6.794;2023-02-28T03:25:20;102864.84;;;-0.75;100.00
8627;BME280;4351;51.422;6.794;2023-02-28T03:27:55;102868.44;;;-0.73;100.00
8627;BME280;4351;51.422;6.794;2023-02-28T03:30:30;102870.03;;;-0.82;100.00
8627;BME280;4351;51.422;6.794;2023-02-28T03:33:03;102866.34;;;-0.88;100.00
8627;BME280;4351;51.422;6.794;2023-02-28T03:35:34;102877.06;;;-0.84;100.00
8627;BME280;4351;51.422;6.794;2023-02-28T03:38:10;102875.91;;;-0.95;100.00
8627;BME280;4351;51.422;6.794;2023-02-28T03:40:44;102884.78;;;-0.93;100.00
8627;BME280;4351;51.422;6.794;2023-02-28T03:43:19;102881.34;;;-0.89;100.00
8627;BME280;4351;51.422;6.794;2023-02-28T03:45:50;102883.22;;;-0.83;100.00
8627;BME280;4351;51.422;6.794;2023-02-28T03:48:22;102882.34;;;-0.84;100.00
8627;BME280;4351;51.422;6.794;2023-02-28T03:50:54;102885.97;;;-0.78;100.00
8627;BME280;4351;51.422;6.794;2023-02-28T03:53:26;102884.25;;;-0.76;100.00
8627;BME280;4351;51.422;6.794;2023-02-28T03:55:58;102877.94;;;-0.83;100.00
8627;BME280;4351;51.422;6.794;2023-02-28T03:58:31;102885.63;;;-0.94;100.00
8627;BME280;4351;51.422;6.794;2023-02-28T04:01:06;102884.69;;;-0.98;100.00
8627;BME280;4351;51.422;6.794;2023-02-28T04:03:35;102886.44;;;-0.98;100.00
8627;BME280;4351;51.422;6.794;2023-02-28T04:06:04;102882.00;;;-0.99;100.00
8627;BME280;4351;51.422;6.794;2023-02-28T04:08:34;102883.78;;;-0.98;100.00
8627;BME280;4351;51.422;6.794;2023-02-28T04:11:06;102885.47;;;-1.03;100.00
8627;BME280;4351;51.422;6.794;2023-02-28T04:13:36;102879.41;;;-0.96;100.00
8627;BME280;4351;51.422;6.794;2023-02-28T04:16:06;102877.56;;;-1.00;100.00
8627;BME280;4351;51.422;6.794;2023-02-28T04:18:50;102882.06;;;-0.96;100.00
8627;BME280;4351;51.422;6.794;2023-02-28T04:21:17;102882.06;;;-0.96;100.00
8627;BME280;4351;51.422;6.794;2023-02-28T04:23:48;102886.38;;;-1.01;100.00
8627;BME280;4351;51.422;6.794;2023-02-28T04:26:16;102881.09;;;-1.00;100.00
8627;BME280;4351;51.422;6.794;2023-02-28T04:28:44;102885.50;;;-1.00;100.00
8627;BME280;4351;51.422;6.794;2023-02-28T04:31:12;102884.03;;;-0.87;100.00
8627;BME280;4351;51.422;6.794;2023-02-28T04:33:40;102884.00;;;-0.89;100.00
8627;BME280;4351;51.422;6.794;2023-02-28T04:36:09;102884.81;;;-0.91;100.00
8627;BME280;4351;51.422;6.794;2023-02-28T04:38:38;102895.22;;;-1.01;100.00
8627;BME280;4351;51.422;6.794;2023-02-28T04:41:07;102891.63;;;-1.03;100.00
8627;BME280;4351;51.422;6.794;2023-02-28T04:43:35;102903.22;;;-0.99;100.00
8627;BME280;4351;51.422;6.794;2023-02-28T04:46:04;102909.44;;;-0.97;100.00
8627;BME280;4351;51.422;6.794;2023-02-28T04:48:34;102905.88;;;-0.99;100.00
8627;BME280;4351;51.422;6.794;2023-02-28T04:51:02;102904.94;;;-1.01;100.00
8627;BME280;4351;51.422;6.794;2023-02-28T04:53:30;102909.34;;;-1.02;100.00
8627;BME280;4351;51.422;6.794;2023-02-28T04:55:58;102906.56;;;-1.07;100.00
8627;BME280;4351;51.422;6.794;2023-02-28T04:58:28;102912.81;;;-1.05;100.00
8627;BME280;4351;51.422;6.794;2023-02-28T05:01:01;102909.31;;;-1.03;100.00
8627;BME280;4351;51.422;6.794;2023-02-28T05:03:29;102908.38;;;-1.06;100.00
8627;BME280;4351;51.422;6.794;2023-02-28T05:05:57;102908.44;;;-1.02;100.00
8627;BME280;4351;51.422;6.794;2023-02-28T05:08:25;102912.94;;;-0.98;100.00
8627;BME280;4351;51.422;6.794;2023-02-28T05:10:56;102915.72;;;-0.92;100.00
8627;BME280;4351;51.422;6.794;2023-02-28T05:13:24;102906.72;;;-1.00;100.00
8627;BME280;4351;51.422;6.794;2023-02-28T05:15:53;102913.69;;;-1.06;100.00
8627;BME280;4351;51.422;6.794;2023-02-28T05:18:21;102921.69;;;-1.02;100.00
8627;BME280;4351;51.422;6.794;2023-02-28T05:20:49;102917.19;;;-1.07;100.00
8627;BME280;4351;51.422;6.794;2023-02-28T05:23:17;102909.91;;;-1.16;100.00
8627;BME280;4351;51.422;6.794;2023-02-28T05:25:47;102921.53;;;-1.09;100.00
8627;BME280;4351;51.422;6.794;2023-02-28T05:28:15;102920.53;;;-1.14;100.00
8627;BME280;4351;51.422;6.794;2023-02-28T05:30:43;102916.91;;;-1.18;100.00
8627;BME280;4351;51.422;6.794;2023-02-28T05:33:12;102917.88;;;-1.14;100.00
8627;BME280;4351;51.422;6.794;2023-02-28T05:35:41;102920.47;;;-1.17;100.00
8627;BME280;4351;51.422;6.794;2023-02-28T05:38:09;102921.63;;;-1.06;100.00
8627;BME280;4351;51.422;6.794;2023-02-28T05:40:38;102926.97;;;-1.02;100.00
8627;BME280;4351;51.422;6.794;2023-02-28T05:43:10;102931.34;;;-1.05;100.00
8627;BME280;4351;51.422;6.794;2023-02-28T05:45:38;102933.22;;;-1.00;100.00
8627;BME280;4351;51.422;6.794;2023-02-28T05:48:06;102926.97;;;-1.04;100.00
8627;BME280;4351;51.422;6.794;2023-02-28T05:50:35;102924.97;;;-1.13;100.00
8627;BME280;4351;51.422;6.794;2023-02-28T05:53:03;102929.78;;;-0.96;100.00
8627;BME280;4351;51.422;6.794;2023-02-28T05:55:31;102928.84;;;-0.98;100.00
8627;BME280;4351;51.422;6.794;2023-02-28T05:57:59;102937.44;;;-1.09;100.00
8627;BME280;4351;51.422;6.794;2023-02-28T06:00:27;102945.69;;;-0.96;100.00
8627;BME280;4351;51.422;6.794;2023-02-28T06:02:55;102936.63;;;-1.06;100.00
8627;BME280;4351;51.422;6.794;2023-02-28T06:05:26;102938.25;;;-1.11;100.00
8627;BME280;4351;51.422;6.794;2023-02-28T06:07:55;102941.22;;;-0.99;100.00
8627;BME280;4351;51.422;6.794;2023-02-28T06:10:23;102936.88;;;-0.95;100.00
8627;BME280;4351;51.422;6.794;2023-02-28T06:12:51;102935.06;;;-0.96;100.00
8627;BME280;4351;51.422;6.794;2023-02-28T06:15:19;102951.88;;;-0.96;100.00
8627;BME280;4351;51.422;6.794;2023-02-28T06:17:57;102948.22;;;-1.01;100.00
8627;BME280;4351;51.422;6.794;2023-02-28T06:20:26;102954.38;;;-1.02;100.00
8627;BME280;4351;51.422;6.794;2023-02-28T06:22:57;102948.22;;;-1.01;100.00
8627;BME280;4351;51.422;6.794;2023-02-28T06:25:26;102948.44;;;-0.91;100.00
8627;BME280;4351;51.422;6.794;2023-02-28T06:27:55;102961.72;;;-0.90;100.00
8627;BME280;4351;51.422;6.794;2023-02-28T06:30:23;102959.81;;;-0.97;100.00
8627;BME280;4351;51.422;6.794;2023-02-28T06:32:53;102955.47;;;-0.92;100.00
8627;BME280;4351;51.422;6.794;2023-02-28T06:35:21;102959.41;;;-0.76;100.00
8627;BME280;4351;51.422;6.794;2023-02-28T06:37:49;102954.19;;;-0.71;100.00
8627;BME280;4351;51.422;6.794;2023-02-28T06:40:18;102953.97;;;-0.81;100.00
8627;BME280;4351;51.422;6.794;2023-02-28T06:42:46;102959.66;;;-0.63;100.00
8627;BME280;4351;51.422;6.794;2023-02-28T06:45:14;102959.66;;;-0.63;100.00
8627;BME280;4351;51.422;6.794;2023-02-28T06:47:42;102958.75;;;-0.65;100.00
8627;BME280;4351;51.422;6.794;2023-02-28T06:50:11;102965.81;;;-0.66;100.00
8627;BME280;4351;51.422;6.794;2023-02-28T06:52:39;102964.97;;;-0.63;100.00
8627;BME280;4351;51.422;6.794;2023-02-28T06:55:08;102962.50;;;-0.55;100.00
8627;BME280;4351;51.422;6.794;2023-02-28T06:57:38;102963.31;;;-0.60;100.00
8627;BME280;4351;51.422;6.794;2023-02-28T07:00:07;102958.00;;;-0.60;100.00
8627;BME280;4351;51.422;6.794;2023-02-28T07:02:36;102964.97;;;-0.63;100.00
8627;BME280;4351;51.422;6.794;2023-02-28T07:05:04;102967.25;;;-0.40;100.00
8627;BME280;4351;51.422;6.794;2023-02-28T07:07:32;102965.56;;;-0.35;100.00
8627;BME280;4351;51.422;6.794;2023-02-28T07:10:03;102961.94;;;-0.40;100.00
8627;BME280;4351;51.422;6.794;2023-02-28T07:12:31;102966.53;;;-0.31;100.00
8627;BME280;4351;51.422;6.794;2023-02-28T07:15:00;102970.38;;;-0.17;100.00
8627;BME280;4351;51.422;6.794;2023-02-28T07:17:29;102969.13;;;0.10;100.00
8627;BME280;4351;51.422;6.794;2023-02-28T07:19:57;102968.63;;;0.30;100.00
8627;BME280;4351;51.422;6.794;2023-02-28T07:22:25;102963.50;;;0.97;100.00
8627;BME280;4351;51.422;6.794;2023-02-28T07:24:53;102969.31;;;1.30;100.00
8627;BME280;4351;51.422;6.794;2023-02-28T07:27:20;102971.03;;;1.97;100.00
8627;BME280;4351;51.422;6.794;2023-02-28T07:29:52;102966.22;;;2.45;100.00
8627;BME280;4351;51.422;6.794;2023-02-28T07:32:22;102970.28;;;3.07;100.00
8627;BME280;4351;51.422;6.794;2023-02-28T07:34:51;102966.56;;;2.86;100.00
8627;BME280;4351;51.422;6.794;2023-02-28T07:37:19;102969.19;;;2.81;100.00
8627;BME280;4351;51.422;6.794;2023-02-28T07:39:47;102971.03;;;2.89;100.00
8627;BME280;4351;51.422;6.794;2023-02-28T07:42:15;102963.44;;;3.61;100.00
8627;BME280;4351;51.422;6.794;2023-02-28T07:44:43;102965.41;;;4.15;100.00
8627;BME280;4351;51.422;6.794;2023-02-28T07:47:11;102962.78;;;4.34;100.00
8627;BME280;4351;51.422;6.794;2023-02-28T07:49:40;102957.38;;;4.15;100.00
8627;BME280;4351;51.422;6.794;2023-02-28T07:52:08;102959.19;;;4.25;100.00
8627;BME280;4351;51.422;6.794;2023-02-28T07:54:37;102960.13;;;4.68;100.00
8627;BME280;4351;51.422;6.794;2023-02-28T07:57:05;102957.44;;;4.60;100.00
8627;BME280;4351;51.422;6.794;2023-02-28T07:59:34;102965.47;;;4.67;100.00
8627;BME280;4351;51.422;6.794;2023-02-28T08:02:02;102968.09;;;4.31;100.00
8627;BME280;4351;51.422;6.794;2023-02-28T08:04:31;102959.16;;;4.10;100.00
8627;BME280;4351;51.422;6.794;2023-02-28T08:07:01;102965.44;;;4.23;100.00
8627;BME280;4351;51.422;6.794;2023-02-28T08:09:29;102960.88;;;3.89;100.00
8627;BME280;4351;51.422;6.794;2023-02-28T08:11:57;102961.75;;;3.77;100.00
8627;BME280;4351;51.422;6.794;2023-02-28T08:14:25;102971.56;;;3.95;100.00
8627;BME280;4351;51.422;6.794;2023-02-28T08:16:53;102971.72;;;4.58;100.00
8627;BME280;4351;51.422;6.794;2023-02-28T08:19:20;102969.00;;;4.48;100.00
8627;BME280;4351;51.422;6.794;2023-02-28T08:21:48;102965.44;;;4.86;100.00
8627;BME280;4351;51.422;6.794;2023-02-28T08:24:18;102964.56;;;4.60;100.00
8627;BME280;4351;51.422;6.794;2023-02-28T08:26:46;102966.34;;;4.58;100.00
8627;BME280;4351;51.422;6.794;2023-02-28T08:29:13;102966.34;;;4.41;100.00
8627;BME280;4351;51.422;6.794;2023-02-28T08:31:42;102960.97;;;4.39;100.00
8627;BME280;4351;51.422;6.794;2023-02-28T08:34:13;102968.13;;;4.70;100.00
8627;BME280;4351;51.422;6.794;2023-02-28T08:36:41;102970.81;;;4.86;100.00
8627;BME280;4351;51.422;6.794;2023-02-28T08:39:11;102964.56;;;4.83;100.00
8627;BME280;4351;51.422;6.794;2023-02-28T08:41:42;102957.28;;;5.55;100.00
8627;BME280;4351;51.422;6.794;2023-02-28T08:44:10;102951.09;;;5.37;100.00
8627;BME280;4351;51.422;6.794;2023-02-28T08:46:38;102953.75;;;5.42;100.00
8627;BME280;4351;51.422;6.794;2023-02-28T08:49:06;102957.25;;;5.61;100.00
8627;BME280;4351;51.422;6.794;2023-02-28T08:51:36;102956.41;;;5.49;100.00
8627;BME280;4351;51.422;6.794;2023-02-28T08:54:04;102955.53;;;5.46;100.00
8627;BME280;4351;51.422;6.794;2023-02-28T08:56:32;102954.53;;;5.72;100.00
8627;BME280;4351;51.422;6.794;2023-02-28T08:59:01;102952.88;;;5.36;100.00
8627;BME280;4351;51.422;6.794;2023-02-28T09:01:29;102954.75;;;4.84;100.00
8627;BME280;4351;51.422;6.794;2023-02-28T09:03:58;102952.06;;;4.90;100.00
8627;BME280;4351;51.422;6.794;2023-02-28T09:06:28;102952.09;;;4.93;100.00
8627;BME280;4351;51.422;6.794;2023-02-28T09:08:57;102948.47;;;5.20;100.00
8627;BME280;4351;51.422;6.794;2023-02-28T09:11:28;102938.59;;;5.29;100.00
8627;BME280;4351;51.422;6.794;2023-02-28T09:13:57;102939.50;;;5.39;100.00
8627;BME280;4351;51.422;6.794;2023-02-28T09:16:27;102942.09;;;5.49;100.00
8627;BME280;4351;51.422;6.794;2023-02-28T09:18:54;102935.00;;;5.48;100.00
8627;BME280;4351;51.422;6.794;2023-02-28T09:21:23;102940.50;;;4.87;100.00
8627;BME280;4351;51.422;6.794;2023-02-28T09:23:51;102936.03;;;4.93;100.00
8627;BME280;4351;51.422;6.794;2023-02-28T09:26:20;102933.34;;;4.79;100.00
8627;BME280;4351;51.422;6.794;2023-02-28T09:28:52;102941.38;;;4.23;100.00
8627;BME280;4351;51.422;6.794;2023-02-28T09:31:24;102939.63;;;4.53;100.00
8627;BME280;4351;51.422;6.794;2023-02-28T09:33:56;102932.44;;;4.05;100.00
8627;BME280;4351;51.422;6.794;2023-02-28T09:36:25;102941.41;;;4.50;100.00
8627;BME280;4351;51.422;6.794;2023-02-28T09:39:09;102929.81;;;4.80;100.00
8627;BME280;4351;51.422;6.794;2023-02-28T09:41:39;102935.13;;;4.74;100.00
8627;BME280;4351;51.422;6.794;2023-02-28T09:44:19;102923.53;;;4.86;100.00
8627;BME280;4351;51.422;6.794;2023-02-28T09:46:51;102924.41;;;5.10;100.00
8627;BME280;4351;51.422;6.794;2023-02-28T09:49:25;102922.59;;;5.15;100.00
8627;BME280;4351;51.422;6.794;2023-02-28T09:51:59;102919.00;;;5.24;100.00
8627;BME280;4351;51.422;6.794;2023-02-28T09:54:28;102925.91;;;5.80;100.00
8627;BME280;4351;51.422;6.794;2023-02-28T09:56:59;102908.88;;;5.94;100.00
8627;BME280;4351;51.422;6.794;2023-02-28T09:59:36;102907.41;;;5.16;100.00
8627;BME280;4351;51.422;6.794;2023-02-28T10:02:17;102914.41;;;5.53;100.00
8627;BME280;4351;51.422;6.794;2023-02-28T10:04:52;102911.69;;;5.70;100.00
8627;BME280;4351;51.422;6.794;2023-02-28T10:07:36;102901.13;;;5.31;100.00
8627;BME280;4351;51.422;6.794;2023-02-28T10:10:17;102913.56;;;5.45;100.00
8627;BME280;4351;51.422;6.794;2023-02-28T10:12:53;102905.25;;;5.98;100.00
8627;BME280;4351;51.422;6.794;2023-02-28T10:15:25;102885.47;;;6.23;100.00
8627;BME280;4351;51.422;6.794;2023-02-28T10:17:59;102882.84;;;6.15;100.00
8627;BME280;4351;51.422;6.794;2023-02-28T10:20:43;102875.78;;;5.95;100.00
8627;BME280;4351;51.422;6.794;2023-02-28T10:23:17;102884.69;;;6.06;100.00
8627;BME280;4351;51.422;6.794;2023-02-28T10:25:52;102876.84;;;5.72;100.00
8627;BME280;4351;51.422;6.794;2023-02-28T10:28:26;102884.09;;;5.54;100.00
8627;BME280;4351;51.422;6.794;2023-02-28T10:30:56;102871.28;;;6.03;100.00
8627;BME280;4351;51.422;6.794;2023-02-28T10:33:28;102883.97;;;5.73;100.00
8627;BME280;4351;51.422;6.794;2023-02-28T10:35:58;102883.97;;;5.76;100.00
8627;BME280;4351;51.422;6.794;2023-02-28T10:38:31;102883.84;;;5.95;100.00
8627;BME280;4351;51.422;6.794;2023-02-28T10:41:04;102891.03;;;5.90;100.00
8627;BME280;4351;51.422;6.794;2023-02-28T10:43:34;102899.44;;;4.89;100.00
8627;BME280;4351;51.422;6.794;2023-02-28T10:46:04;102927.94;;;5.17;100.00
8627;BME280;4351;51.422;6.794;2023-02-28T10:48:38;102893.22;;;4.81;100.00
8627;BME280;4351;51.422;6.794;2023-02-28T10:51:10;102893.22;;;4.90;100.00
8627;BME280;4351;51.422;6.794;2023-02-28T10:53:45;102887.69;;;5.40;100.00
8627;BME280;4351;51.422;6.794;2023-02-28T10:56:27;102882.47;;;5.09;100.00
8627;BME280;4351;51.422;6.794;2023-02-28T10:58:57;102875.34;;;5.02;100.00
8627;BME280;4351;51.422;6.794;2023-02-28T11:01:35;102887.00;;;4.77;100.00
8627;BME280;4351;51.422;6.794;2023-02-28T11:04:18;102870.00;;;5.02;100.00
8627;BME280;4351;51.422;6.794;2023-02-28T11:06:56;102869.97;;;5.14;100.00
8627;BME280;4351;51.422;6.794;2023-02-28T11:09:28;102874.41;;;5.26;100.00
8627;BME280;4351;51.422;6.794;2023-02-28T11:11:58;102878.91;;;5.09;100.00
8627;BME280;4351;51.422;6.794;2023-02-28T11:14:27;102883.31;;;5.25;100.00
8627;BME280;4351;51.422;6.794;2023-02-28T11:16:59;102874.31;;;5.44;100.00
8627;BME280;4351;51.422;6.794;2023-02-28T11:19:35;102874.47;;;4.97;100.00
8627;BME280;4351;51.422;6.794;2023-02-28T11:22:06;102880.59;;;5.39;100.00
8627;BME280;4351;51.422;6.794;2023-02-28T11:24:37;102866.41;;;5.15;100.00
8627;BME280;4351;51.422;6.794;2023-02-28T11:27:24;102859.06;;;5.58;100.00
8627;BME280;4351;51.422;6.794;2023-02-28T11:29:53;102850.00;;;5.78;100.00
8627;BME280;4351;51.422;6.794;2023-02-28T11:32:22;102865.31;;;5.56;100.00
8627;BME280;4351;51.422;6.794;2023-02-28T11:35:01;102850.09;;;5.62;100.00
8627;BME280;4351;51.422;6.794;2023-02-28T11:37:31;102845.59;;;5.71;100.00
8627;BME280;4351;51.422;6.794;2023-02-28T11:40:00;102859.13;;;5.47;100.00
8627;BME280;4351;51.422;6.794;2023-02-28T11:42:37;102851.03;;;5.55;100.00
8627;BME280;4351;51.422;6.794;2023-02-28T11:45:21;102845.38;;;6.08;100.00
8627;BME280;4351;51.422;6.794;2023-02-28T11:47:56;102837.41;;;5.93;100.00
8627;BME280;4351;51.422;6.794;2023-02-28T11:50:40;102844.50;;;6.03;100.00
8627;BME280;4351;51.422;6.794;2023-02-28T11:53:21;102848.41;;;5.50;100.00
8627;BME280;4351;51.422;6.794;2023-02-28T11:55:54;102839.28;;;5.81;100.00
8627;BME280;4351;51.422;6.794;2023-02-28T11:58:39;102839.06;;;6.16;100.00
8627;BME280;4351;51.422;6.794;2023-02-28T12:01:18;102846.50;;;5.70;100.00
8627;BME280;4351;51.422;6.794;2023-02-28T12:04:00;102847.31;;;5.80;100.00
8627;BME280;4351;51.422;6.794;2023-02-28T12:06:38;102836.69;;;5.64;100.00
8627;BME280;4351;51.422;6.794;2023-02-28T12:09:26;102832.03;;;5.93;100.00
8627;BME280;4351;51.422;6.794;2023-02-28T12:12:02;102833.72;;;6.13;100.00
8627;BME280;4351;51.422;6.794;2023-02-28T12:14:59;102842.81;;;5.90;100.00
8627;BME280;4351;51.422;6.794;2023-02-28T12:17:39;102836.31;;;6.25;100.00
8627;BME280;4351;51.422;6.794;2023-02-28T12:20:17;102839.09;;;6.11;100.00
8627;BME280;4351;51.422;6.794;2023-02-28T12:22:57;102837.63;;;5.58;100.00
8627;BME280;4351;51.422;6.794;2023-02-28T12:25:48;102819.31;;;6.23;100.00
8627;BME280;4351;51.422;6.794;2023-02-28T12:28:23;102819.72;;;5.67;100.00
8627;BME280;4351;51.422;6.794;2023-02-28T12:30:56;102834.16;;;5.44;100.00
8627;BME280;4351;51.422;6.794;2023-02-28T12:33:31;102830.38;;;5.73;100.00
8627;BME280;4351;51.422;6.794;2023-02-28T12:36:07;102813.22;;;6.07;100.00
8627;BME280;4351;51.422;6.794;2023-02-28T12:38:42;102832.34;;;5.46;100.00
8627;BME280;4351;51.422;6.794;2023-02-28T12:41:16;102838.50;;;5.62;100.00
8627;BME280;4351;51.422;6.794;2023-02-28T12:43:50;102825.25;;;5.38;100.00
8627;BME280;4351;51.422;6.794;2023-02-28T12:46:25;102823.34;;;5.58;100.00
8627;BME280;4351;51.422;6.794;2023-02-28T12:49:05;102814.31;;;5.76;100.00
8627;BME280;4351;51.422;6.794;2023-02-28T12:51:35;102798.84;;;6.16;100.00
8627;BME280;4351;51.422;6.794;2023-02-28T12:54:11;102800.63;;;6.18;100.00
8627;BME280;4351;51.422;6.794;2023-02-28T12:56:47;102801.78;;;5.80;100.00
8627;BME280;4351;51.422;6.794;2023-02-28T12:59:23;102785.47;;;6.13;100.00
8627;BME280;4351;51.422;6.794;2023-02-28T13:02:01;102790.75;;;6.22;100.00
8627;BME280;4351;51.422;6.794;2023-02-28T13:04:52;102784.47;;;6.26;100.00
8627;BME280;4351;51.422;6.794;2023-02-28T13:07:49;102781.38;;;6.65;100.00
8627;BME280;4351;51.422;6.794;2023-02-28T13:10:22;102759.94;;;6.64;100.00
8627;BME280;4351;51.422;6.794;2023-02-28T13:12:53;102774.91;;;6.84;100.00
8627;BME280;4351;51.422;6.794;2023-02-28T13:15:25;102760.09;;;6.51;100.00
8627;BME280;4351;51.422;6.794;2023-02-28T13:17:56;102776.50;;;6.15;100.00
8627;BME280;4351;51.422;6.794;2023-02-28T13:20:33;102775.72;;;6.01;100.00
8627;BME280;4351;51.422;6.794;2023-02-28T13:23:02;102764.47;;;6.57;100.00
8627;BME280;4351;51.422;6.794;2023-02-28T13:25:53;102756.56;;;6.46;100.00
8627;BME280;4351;51.422;6.794;2023-02-28T13:34:46;102772.31;;;5.78;100.00
8627;BME280;4351;51.422;6.794;2023-02-28T13:37:33;102769.66;;;5.75;100.00
8627;BME280;4351;51.422;6.794;2023-02-28T13:40:30;102786.50;;;5.91;100.00
8627;BME280;4351;51.422;6.794;2023-02-28T13:43:07;102769.44;;;6.06;100.00